Weather History for KDVP - October, 2012

Change the Weather History Date:

Monday, October 8, 2012

  Actual Average (KOTG) Record (KOTG)
Temperature  
Mean Temperature 52 °F -  
Max Temperature 67 °F 61 °F 87 °F (2010)
Min Temperature 37 °F 40 °F 17 °F (2000)
Degree Days  
Heating Degree Days 14    
Growing Degree Days 2 (Base 50)    
Moisture  
Dew Point 28 °F    
Average Humidity 44    
Maximum Humidity 60    
Minimum Humidity 24    
Precipitation  
Precipitation 0.00 in - - ()
Sea Level Pressure  
Sea Level Pressure 29.76 in    
Wind  
Wind Speed 15 mph (SW)    
Max Wind Speed 31 mph    
Max Gust Speed 38 mph    
Visibility 10 miles    
Events      
Averages and records for this station are not official NWS values.
T = Trace of Precipitation, MM = Missing Value Source: NWS Daily Summary

Daily Weather History Graph

Daily Weather History Graph

Search for Another Location

Airport or City:

Trip Planner

Search our weather history database for the weather conditions in past years. The results will help you decide how hot, cold, wet, or windy it might be!

Date:

Astronomy

Oct. 08, 2012 Rise Set
Actual Time 7:29 AM CDT 6:50 PM CDT
Civil Twilight 7:00 AM CDT 7:19 PM CDT
Nautical Twilight 6:27 AM CDT 7:52 PM CDT
Astronomical Twilight 5:53 AM CDT 8:26 PM CDT
Moon No Moon Rise 2:53 PM CDT (10/8)
Length of Visible Light 12h 18m
Length of Day
11h 20m
Last Quarter, 46% of the Moon is Illuminated
Oct 8
Last Quarter
Oct 15
New
Oct 21
First Quarter
Oct 29
Full
Nov 6
Last Quarter

Hourly Weather History & Observations

Time (CDT) Temp. Windchill Dew Point Humidity Pressure Visibility Wind Dir Wind Speed Gust Speed Precip Events Conditions
12:14 AM 37.4 °F 29.3 °F 17.1 °F 44% 29.87 in 10.0 mi SSW 12.7 mph - N/A   Clear
12:34 AM 37.0 °F 28.5 °F 18.1 °F 46% 29.86 in 10.0 mi SSW 13.8 mph - N/A   Clear
12:53 AM 37.0 °F 28.9 °F 18.9 °F 48% 29.86 in 10.0 mi SSW 12.7 mph - N/A   Clear
1:14 AM 37.4 °F 29.8 °F 19.4 °F 48% 29.86 in 10.0 mi SSW 11.5 mph - N/A   Clear
1:34 AM 37.2 °F 29.1 °F 20.1 °F 50% 29.86 in 10.0 mi SSW 12.7 mph - N/A   Clear
1:54 AM 37.4 °F 29.8 °F 20.5 °F 51% 29.86 in 10.0 mi SSW 11.5 mph - N/A   Clear
2:14 AM 37.4 °F 29.8 °F 21.2 °F 52% 29.86 in 10.0 mi SSW 11.5 mph - N/A   Clear
2:34 AM 37.6 °F 29.6 °F 21.2 °F 52% 29.85 in 10.0 mi SSW 12.7 mph - N/A   Clear
2:53 AM 37.4 °F 29.3 °F 21.9 °F 54% 29.85 in 10.0 mi SSW 12.7 mph - N/A   Clear
3:14 AM 37.8 °F 30.7 °F 22.6 °F 54% 29.84 in 10.0 mi SSW 10.4 mph - N/A   Mostly Cloudy
3:34 AM 39.4 °F 31.8 °F 23.2 °F 52% 29.83 in 10.0 mi SSW 12.7 mph - N/A   Overcast
3:53 AM 40.5 °F 32.8 °F 23.4 °F 51% 29.82 in 10.0 mi SSW 13.8 mph - N/A   Overcast
4:14 AM 41.2 °F 34.1 °F 23.4 °F 49% 29.82 in 10.0 mi SSW 12.7 mph - N/A   Overcast
4:34 AM 41.4 °F 34.3 °F 23.5 °F 49% 29.81 in 10.0 mi SSW 12.7 mph - N/A   Overcast
4:54 AM 41.9 °F 34.3 °F 23.5 °F 48% 29.81 in 10.0 mi SSW 15.0 mph - N/A   Overcast
5:14 AM 42.1 °F 34.9 °F 23.4 °F 48% 29.80 in 10.0 mi SSW 13.8 mph - N/A   Overcast
5:34 AM 42.1 °F 34.9 °F 23.7 °F 48% 29.80 in 10.0 mi SSW 13.8 mph - N/A   Overcast
5:54 AM 42.1 °F 34.5 °F 23.9 °F 49% 29.80 in 10.0 mi SSW 15.0 mph - N/A   Overcast
6:14 AM 41.9 °F 34.0 °F 23.9 °F 49% 29.79 in 10.0 mi SSW 16.1 mph - N/A   Mostly Cloudy
6:34 AM 41.9 °F 34.0 °F 24.1 °F 49% 29.78 in 10.0 mi SSW 16.1 mph - N/A   Scattered Clouds
6:54 AM 42.1 °F 34.2 °F 24.4 °F 50% 29.78 in 10.0 mi SSW 16.1 mph - N/A   Mostly Cloudy
7:14 AM 42.3 °F 35.1 °F 24.4 °F 49% 29.77 in 10.0 mi SSW 13.8 mph - N/A   Overcast
7:34 AM 42.8 °F 34.8 °F 24.8 °F 49% 29.76 in 10.0 mi SSW 17.3 mph 20.7 mph N/A   Mostly Cloudy
7:54 AM 43.0 °F 35.4 °F 24.8 °F 49% 29.76 in 10.0 mi SSW 16.1 mph - N/A   Scattered Clouds
8:14 AM 43.3 °F 36.1 °F 25.3 °F 49% 29.76 in 10.0 mi SSW 15.0 mph - N/A   Mostly Cloudy
8:34 AM 43.9 °F 36.8 °F 25.5 °F 48% 29.77 in 10.0 mi SW 15.0 mph - N/A   Mostly Cloudy
8:54 AM 44.6 °F 37.2 °F 25.7 °F 48% 29.76 in 10.0 mi SSW 17.3 mph 23.0 mph N/A   Scattered Clouds
9:13 AM 45.0 °F 37.4 °F 26.1 °F 48% 29.75 in 10.0 mi SSW 18.4 mph - N/A   Mostly Cloudy
9:34 AM 45.9 °F 38.8 °F 26.2 °F 46% 29.74 in 10.0 mi SSW 17.3 mph - N/A   Scattered Clouds
9:54 AM 47.5 °F - 26.4 °F 44% 29.74 in 10.0 mi SSW 18.4 mph 23.0 mph N/A   Clear
10:14 AM 51.6 °F - 27.0 °F 38% 29.74 in 10.0 mi SW 19.6 mph - N/A   Clear
10:34 AM 50.9 °F - 26.6 °F 39% 29.72 in 10.0 mi SW 18.4 mph 27.6 mph N/A   Scattered Clouds
10:54 AM 51.6 °F - 26.6 °F 38% 29.72 in 10.0 mi SW 20.7 mph 26.5 mph N/A   Mostly Cloudy
11:14 AM 52.3 °F - 26.8 °F 37% 29.72 in 10.0 mi SW 23.0 mph 29.9 mph N/A   Mostly Cloudy
11:34 AM 53.4 °F - 26.8 °F 36% 29.70 in 10.0 mi SSW 19.6 mph - N/A   Mostly Cloudy
11:54 AM 53.8 °F - 26.6 °F 35% 29.69 in 10.0 mi SSW 20.7 mph 25.3 mph N/A   Overcast
12:14 PM 54.3 °F - 27.1 °F 35% 29.69 in 10.0 mi SSW 20.7 mph 26.5 mph N/A   Mostly Cloudy
12:54 PM 60.6 °F - 27.5 °F 28% 29.67 in 10.0 mi SSW 24.2 mph 32.2 mph N/A   Clear
1:34 PM 63.3 °F - 26.6 °F 25% 29.66 in 10.0 mi SW 31.1 mph 38.0 mph N/A   Clear
1:55 PM 64.4 °F - 27.0 °F 24% 29.66 in 10.0 mi SW 27.6 mph 36.8 mph N/A   Clear
2:14 PM 64.9 °F - 27.3 °F 24% 29.66 in 10.0 mi SW 25.3 mph 33.4 mph N/A   Clear
2:34 PM 64.8 °F - 29.3 °F 26% 29.66 in 10.0 mi WSW 24.2 mph 29.9 mph N/A   Clear
2:54 PM 64.8 °F - 28.9 °F 26% 29.67 in 10.0 mi WSW 23.0 mph 31.1 mph N/A   Clear
3:14 PM 65.3 °F - 28.8 °F 25% 29.66 in 10.0 mi WSW 23.0 mph 29.9 mph N/A   Clear
3:34 PM 66.7 °F - 32.2 °F 28% 29.65 in 10.0 mi WSW 19.6 mph 28.8 mph N/A   Scattered Clouds
3:54 PM 66.6 °F - 33.6 °F 29% 29.66 in 10.0 mi West 20.7 mph 25.3 mph N/A   Scattered Clouds
4:14 PM 65.7 °F - 34.7 °F 32% 29.67 in 10.0 mi West 25.3 mph 31.1 mph N/A   Scattered Clouds
4:34 PM 65.3 °F - 35.6 °F 33% 29.67 in 10.0 mi West 21.9 mph 31.1 mph N/A   Clear
4:54 PM 64.4 °F - 36.9 °F 36% 29.68 in 10.0 mi West 21.9 mph 31.1 mph N/A   Scattered Clouds
5:14 PM 63.9 °F - 36.5 °F 36% 29.69 in 10.0 mi West 20.7 mph 28.8 mph N/A   Scattered Clouds
5:34 PM 62.6 °F - 36.5 °F 38% 29.70 in 10.0 mi West 20.7 mph - N/A   Scattered Clouds
5:54 PM 61.3 °F - 36.7 °F 40% 29.71 in 10.0 mi WNW 17.3 mph - N/A   Scattered Clouds
6:13 PM 60.4 °F - 37.2 °F 42% 29.72 in 10.0 mi WNW 18.4 mph - N/A   Clear
6:34 PM 59.0 °F - 37.4 °F 45% 29.73 in 10.0 mi WNW 18.4 mph 23.0 mph N/A   Clear
6:54 PM 58.1 °F - 37.0 °F 45% 29.73 in 10.0 mi WNW 12.7 mph - N/A   Scattered Clouds
7:14 PM 57.4 °F - 37.0 °F 47% 29.74 in 10.0 mi WNW 10.4 mph - N/A   Scattered Clouds
7:34 PM 57.0 °F - 36.9 °F 47% 29.75 in 10.0 mi WNW 10.4 mph - N/A   Mostly Cloudy
7:54 PM 56.3 °F - 36.9 °F 48% 29.76 in 10.0 mi WNW 8.1 mph - N/A   Overcast
8:14 PM 55.6 °F - 37.0 °F 50% 29.77 in 10.0 mi WNW 5.8 mph - N/A   Overcast
8:33 PM 54.7 °F - 37.2 °F 52% 29.78 in 10.0 mi West 5.8 mph - N/A   Overcast
9:14 PM 52.9 °F - 36.9 °F 55% 29.79 in 10.0 mi NW 3.5 mph - N/A   Overcast
9:34 PM 52.2 °F - 36.5 °F 55% 29.79 in 10.0 mi West 3.5 mph - N/A   Overcast
9:54 PM 51.8 °F - 36.5 °F 56% 29.79 in 10.0 mi Calm Calm - N/A   Overcast
10:14 PM 52.0 °F - 36.5 °F 56% 29.79 in 10.0 mi Calm Calm - N/A   Overcast
10:53 PM 49.6 °F - 35.8 °F 59% 29.79 in 10.0 mi SSW 5.8 mph - N/A   Mostly Cloudy
11:34 PM 48.4 °F - 35.2 °F 60% 29.79 in 10.0 mi WSW 5.8 mph - N/A   Overcast
11:54 PM 48.6 °F - 35.2 °F 60% 29.79 in 10.0 mi SW 5.8 mph - N/A   Overcast